createdAt,value
2023-04-27T00:00:38.560Z,25.44
2023-04-27T00:03:11.965Z,25.47
2023-04-27T00:05:40.101Z,25.46
2023-04-27T00:08:13.236Z,25.47
2023-04-27T00:10:40.866Z,25.49
2023-04-27T00:13:10.992Z,25.49
2023-04-27T00:15:41.174Z,25.52
2023-04-27T00:18:09.671Z,25.55
2023-04-27T00:20:40.182Z,25.52
2023-04-27T00:23:10.560Z,25.45
2023-04-27T00:25:38.190Z,25.45
2023-04-27T00:28:08.314Z,25.46
2023-04-27T00:30:38.554Z,25.47
2023-04-27T00:33:06.252Z,25.47
2023-04-27T00:35:41.733Z,25.44
2023-04-27T00:38:14.923Z,25.42
2023-04-27T00:40:48.653Z,25.43
2023-04-27T00:43:18.310Z,25.40
2023-04-27T00:45:45.990Z,25.39
2023-04-27T00:48:13.481Z,25.37
2023-04-27T00:50:44.475Z,25.37
2023-04-27T00:53:13.501Z,25.36
2023-04-27T00:55:42.938Z,25.36
2023-04-27T00:58:13.794Z,25.33
2023-04-27T01:00:49.560Z,25.35
2023-04-27T01:03:19.671Z,25.35
2023-04-27T01:05:53.203Z,25.32
2023-04-27T01:08:28.949Z,25.33
2023-04-27T01:10:56.598Z,25.36
2023-04-27T01:13:24.294Z,25.34
2023-04-27T01:15:52.697Z,25.33
2023-04-27T01:18:23.353Z,25.31
2023-04-27T01:20:56.593Z,25.27
2023-04-27T01:23:26.410Z,25.31
2023-04-27T01:25:54.939Z,25.32
2023-04-27T01:28:25.960Z,25.35
2023-04-27T01:30:56.240Z,25.29
2023-04-27T01:33:27.408Z,25.26
2023-04-27T01:36:00.282Z,25.27
2023-04-27T01:38:33.651Z,25.26
2023-04-27T01:41:04.050Z,25.27
2023-04-27T01:43:32.230Z,25.22
2023-04-27T01:46:13.634Z,25.27
2023-04-27T01:48:44.271Z,25.30
2023-04-27T01:51:15.182Z,25.30
2023-04-27T01:53:48.633Z,25.28
2023-04-27T01:56:22.886Z,25.26
2023-04-27T01:58:53.057Z,25.27
2023-04-27T02:01:23.100Z,25.26
2023-04-27T02:03:53.346Z,25.26
2023-04-27T02:06:27.815Z,25.26
2023-04-27T02:09:01.141Z,25.28
2023-04-27T02:11:32.305Z,25.27
2023-04-27T02:14:03.729Z,25.27
2023-04-27T02:16:34.126Z,25.23
2023-04-27T02:19:02.932Z,25.22
2023-04-27T02:21:33.666Z,25.24
2023-04-27T02:24:07.358Z,25.23
2023-04-27T02:26:37.622Z,25.22
2023-04-27T02:29:05.160Z,25.21
2023-04-27T02:31:36.181Z,25.19
2023-04-27T02:34:03.656Z,25.19
2023-04-27T02:36:31.702Z,25.21
2023-04-27T02:38:59.246Z,25.20
2023-04-27T02:41:32.313Z,25.18
2023-04-27T02:44:05.449Z,25.22
2023-04-27T02:46:36.766Z,25.19
2023-04-27T02:49:09.424Z,25.19
2023-04-27T02:51:36.784Z,25.17
2023-04-27T02:54:07.183Z,25.12
2023-04-27T02:56:34.778Z,25.13
2023-04-27T02:59:02.281Z,25.11
2023-04-27T03:01:29.810Z,25.17
2023-04-27T03:04:00.336Z,25.17
2023-04-27T03:06:30.252Z,25.17
2023-04-27T03:08:57.677Z,25.13
2023-04-27T03:11:25.249Z,25.11
2023-04-27T03:13:53.116Z,25.16
2023-04-27T03:16:23.422Z,25.08
2023-04-27T03:18:53.903Z,25.12
2023-04-27T03:21:23.833Z,25.08
2023-04-27T03:23:55.068Z,25.07
2023-04-27T03:26:24.239Z,25.07
2023-04-27T03:28:54.018Z,25.07
2023-04-27T03:31:27.607Z,25.09
2023-04-27T03:34:00.160Z,25.08
2023-04-27T03:36:33.716Z,25.05
2023-04-27T03:39:01.300Z,25.07
2023-04-27T03:41:31.933Z,25.08
2023-04-27T03:44:02.056Z,25.05
2023-04-27T03:46:31.987Z,25.02
2023-04-27T03:49:03.281Z,25.03
2023-04-27T03:51:34.355Z,25.04
2023-04-27T03:54:05.704Z,25.04
2023-04-27T03:56:35.989Z,25.05
2023-04-27T03:59:06.633Z,25.04
2023-04-27T04:01:37.307Z,25.03
2023-04-27T04:04:04.968Z,24.97
2023-04-27T04:06:36.428Z,25.02
2023-04-27T04:09:06.766Z,24.99
2023-04-27T04:11:37.374Z,24.98
2023-04-27T04:14:07.065Z,24.97
2023-04-27T04:16:34.650Z,24.93
2023-04-27T04:19:02.283Z,24.98
2023-04-27T04:21:33.054Z,24.95
2023-04-27T04:24:01.033Z,24.94
2023-04-27T04:26:31.219Z,24.98
2023-04-27T04:29:03.560Z,24.98
2023-04-27T04:31:34.301Z,24.98
2023-04-27T04:34:02.412Z,24.99
2023-04-27T04:36:32.992Z,24.96
2023-04-27T04:39:06.776Z,24.95
2023-04-27T04:41:34.266Z,25.00
2023-04-27T04:44:04.446Z,24.97
2023-04-27T04:46:32.337Z,24.94
2023-04-27T04:49:02.642Z,24.94
2023-04-27T04:51:32.767Z,24.94
2023-04-27T04:54:01.798Z,24.94
2023-04-27T04:56:34.765Z,24.93
2023-04-27T04:59:08.594Z,24.96
2023-04-27T05:01:39.221Z,25.02
2023-04-27T05:04:06.913Z,24.98
2023-04-27T05:06:40.879Z,24.99
2023-04-27T05:09:16.463Z,24.96
2023-04-27T05:11:51.100Z,25.02
2023-04-27T05:14:21.323Z,25.03
2023-04-27T05:16:49.501Z,25.02
2023-04-27T05:19:20.773Z,25.03
2023-04-27T05:21:48.599Z,25.02
2023-04-27T05:24:19.080Z,25.03
2023-04-27T05:26:52.285Z,25.13
2023-04-27T05:29:19.827Z,25.19
2023-04-27T05:31:49.759Z,25.19
2023-04-27T05:34:17.599Z,25.09
2023-04-27T05:36:47.064Z,25.12
2023-04-27T05:39:15.296Z,25.13
2023-04-27T05:41:43.027Z,25.15
2023-04-27T05:44:11.262Z,25.09
2023-04-27T05:46:38.800Z,25.09
2023-04-27T05:49:10.554Z,25.14
2023-04-27T05:51:42.952Z,25.10
2023-04-27T05:54:13.668Z,25.17
2023-04-27T05:56:41.452Z,25.17
2023-04-27T05:59:12.233Z,25.26
2023-04-27T06:01:40.278Z,25.24
2023-04-27T06:04:13.641Z,25.30
2023-04-27T06:06:41.244Z,25.43
2023-04-27T06:09:15.028Z,24.88
2023-04-27T06:11:43.710Z,24.21
2023-04-27T06:14:17.672Z,23.73
2023-04-27T06:16:47.795Z,23.73
2023-04-27T06:19:24.342Z,23.74
2023-04-27T06:21:51.995Z,23.51
2023-04-27T06:24:19.847Z,23.44
2023-04-27T06:26:50.060Z,23.41
2023-04-27T06:29:21.203Z,23.60
2023-04-27T06:31:54.015Z,23.95
2023-04-27T06:34:27.196Z,24.33
2023-04-27T06:37:05.224Z,24.69
2023-04-27T06:39:41.460Z,24.73
2023-04-27T06:42:09.610Z,24.97
2023-04-27T06:44:41.602Z,25.09
2023-04-27T06:47:14.414Z,24.98
2023-04-27T06:49:49.599Z,24.91
2023-04-27T06:52:40.236Z,25.20
2023-04-27T06:55:11.321Z,25.36
2023-04-27T06:57:42.229Z,25.36
2023-04-27T07:00:12.101Z,25.56
2023-04-27T07:02:42.608Z,25.51
2023-04-27T07:05:10.920Z,25.63
2023-04-27T07:07:41.450Z,25.54
2023-04-27T07:10:10.331Z,25.69
2023-04-27T07:12:46.288Z,25.66
2023-04-27T07:15:19.701Z,25.62
2023-04-27T07:17:55.106Z,25.96
2023-04-27T07:20:31.680Z,25.97
2023-04-27T07:23:06.553Z,26.34
2023-04-27T07:25:43.656Z,26.39
2023-04-27T07:28:11.535Z,26.42
2023-04-27T07:30:44.761Z,26.95
2023-04-27T07:33:18.160Z,26.87
2023-04-27T07:35:45.801Z,26.85
2023-04-27T07:38:17.576Z,26.54
2023-04-27T07:40:48.955Z,26.48
2023-04-27T07:43:22.387Z,26.18
2023-04-27T07:45:55.035Z,26.32
2023-04-27T07:48:25.635Z,26.27
2023-04-27T07:51:05.675Z,26.31
2023-04-27T07:53:40.839Z,26.33
2023-04-27T07:56:17.564Z,26.09
2023-04-27T07:58:46.056Z,26.17
2023-04-27T08:01:13.780Z,26.01
2023-04-27T08:03:41.589Z,26.04
2023-04-27T08:06:14.986Z,26.06
2023-04-27T08:08:52.176Z,26.10
2023-04-27T08:11:27.921Z,26.18
2023-04-27T08:13:58.750Z,26.17
2023-04-27T08:16:29.482Z,26.43
2023-04-27T08:19:04.311Z,26.49
2023-04-27T08:21:32.985Z,26.79
2023-04-27T08:24:08.914Z,26.81
2023-04-27T08:26:41.585Z,27.13
2023-04-27T08:29:27.221Z,27.05
2023-04-27T08:32:00.948Z,27.20
2023-04-27T08:34:30.300Z,27.75
2023-04-27T08:37:06.405Z,27.92
2023-04-27T08:39:39.032Z,28.15
2023-04-27T08:42:16.710Z,28.37
2023-04-27T08:44:50.497Z,27.91
2023-04-27T08:47:35.126Z,28.02
2023-04-27T08:50:16.142Z,27.90
2023-04-27T08:52:54.027Z,27.53
2023-04-27T08:55:31.657Z,27.31
2023-04-27T08:58:04.401Z,27.11
2023-04-27T09:00:45.272Z,26.91
2023-04-27T09:03:28.625Z,26.70
2023-04-27T09:06:05.201Z,26.64
2023-04-27T09:08:47.146Z,26.53
2023-04-27T09:11:17.385Z,26.56
2023-04-27T09:13:53.868Z,26.49
2023-04-27T09:16:25.460Z,26.45
2023-04-27T09:18:56.768Z,26.46
2023-04-27T09:21:31.506Z,26.43
2023-04-27T09:24:21.406Z,26.32
2023-04-27T09:26:53.339Z,26.40
2023-04-27T09:29:21.343Z,26.21
2023-04-27T09:31:51.869Z,26.38
2023-04-27T09:34:22.317Z,26.34
2023-04-27T09:36:59.724Z,26.35
2023-04-27T09:39:32.905Z,26.33
2023-04-27T09:42:01.091Z,26.25
2023-04-27T09:44:36.597Z,26.22
2023-04-27T09:47:10.582Z,26.25
2023-04-27T09:49:51.133Z,26.35
2023-04-27T09:52:26.863Z,26.34
2023-04-27T09:55:07.117Z,26.30
2023-04-27T09:57:38.151Z,26.24
2023-04-27T10:00:12.029Z,26.26
2023-04-27T10:02:56.571Z,26.25
2023-04-27T10:05:29.988Z,26.25
2023-04-27T10:08:01.343Z,26.24
2023-04-27T10:10:42.085Z,26.25
2023-04-27T10:13:24.303Z,26.18
2023-04-27T10:15:54.489Z,26.17
2023-04-27T10:18:37.380Z,26.15
2023-04-27T10:21:13.886Z,26.26
2023-04-27T10:23:52.007Z,26.20
2023-04-27T10:26:33.556Z,26.14
2023-04-27T10:29:12.026Z,26.15
2023-04-27T10:31:48.739Z,26.16
2023-04-27T10:34:28.844Z,26.21
2023-04-27T10:37:12.168Z,26.15
2023-04-27T10:39:49.053Z,26.15
2023-04-27T10:42:35.134Z,26.14
2023-04-27T10:45:15.300Z,26.16
2023-04-27T10:47:47.917Z,26.14
2023-04-27T10:50:23.395Z,26.10
2023-04-27T10:53:04.374Z,26.12
2023-04-27T10:55:43.610Z,26.12
2023-04-27T10:58:23.443Z,26.14
2023-04-27T11:00:54.781Z,26.15
2023-04-27T11:03:24.308Z,26.12
2023-04-27T11:06:07.694Z,26.10
2023-04-27T11:08:45.355Z,26.11
2023-04-27T11:11:24.311Z,26.09
2023-04-27T11:13:56.003Z,26.10
2023-04-27T11:16:29.668Z,26.06
2023-04-27T11:19:17.165Z,26.08
2023-04-27T11:22:04.159Z,25.99
2023-04-27T11:24:37.346Z,26.04
2023-04-27T11:27:07.945Z,26.03
2023-04-27T11:29:39.555Z,26.12
2023-04-27T11:32:27.839Z,26.01
2023-04-27T11:35:09.256Z,25.99
2023-04-27T11:37:45.473Z,26.04
2023-04-27T11:40:23.216Z,26.03
2023-04-27T11:43:04.412Z,26.01
2023-04-27T11:45:42.642Z,25.98
2023-04-27T11:48:19.069Z,26.05
2023-04-27T11:50:53.506Z,26.09
2023-04-27T11:53:39.303Z,26.13
2023-04-27T11:56:11.213Z,26.17
2023-04-27T11:58:39.822Z,26.25
2023-04-27T12:01:15.536Z,26.23
2023-04-27T12:03:54.327Z,26.18
2023-04-27T12:06:34.054Z,26.20
2023-04-27T12:09:15.571Z,26.20
2023-04-27T12:11:48.961Z,26.10
2023-04-27T12:14:22.217Z,26.10
2023-04-27T12:16:55.088Z,26.11
2023-04-27T12:19:26.832Z,26.10
2023-04-27T12:21:58.538Z,26.04
2023-04-27T12:24:27.469Z,26.11
2023-04-27T12:27:01.144Z,26.07
2023-04-27T12:29:33.136Z,25.99
2023-04-27T12:32:03.758Z,25.83
2023-04-27T12:34:35.995Z,25.69
2023-04-27T12:37:07.696Z,25.75
2023-04-27T12:39:38.317Z,25.92
2023-04-27T12:42:09.272Z,26.03
2023-04-27T12:44:42.113Z,26.04
2023-04-27T12:47:12.266Z,26.06
2023-04-27T12:49:53.834Z,26.06
2023-04-27T12:52:23.622Z,26.00
2023-04-27T12:54:59.456Z,26.07
2023-04-27T12:57:37.916Z,26.12
2023-04-27T13:00:10.512Z,26.15
2023-04-27T13:02:41.579Z,26.11
2023-04-27T13:05:15.681Z,26.10
2023-04-27T13:07:46.982Z,26.09
2023-04-27T13:10:15.727Z,26.07
2023-04-27T13:12:48.062Z,26.16
2023-04-27T13:15:21.507Z,26.12
2023-04-27T13:17:53.532Z,26.10
2023-04-27T13:20:27.375Z,26.16
2023-04-27T13:22:57.682Z,26.12
2023-04-27T13:25:31.647Z,26.12
2023-04-27T13:28:06.114Z,26.14
2023-04-27T13:30:39.037Z,26.22
2023-04-27T13:33:23.304Z,26.28
2023-04-27T13:35:57.919Z,26.44
2023-04-27T13:38:27.872Z,26.45
2023-04-27T13:40:55.953Z,26.56
2023-04-27T13:43:26.044Z,26.62
2023-04-27T13:46:00.730Z,26.63
2023-04-27T13:48:33.423Z,26.56
2023-04-27T13:51:01.435Z,26.51
2023-04-27T13:53:29.180Z,26.64
2023-04-27T13:55:58.004Z,26.79
2023-04-27T13:58:30.732Z,26.95
2023-04-27T14:01:01.125Z,27.15
2023-04-27T14:03:34.894Z,27.27
2023-04-27T14:06:09.333Z,27.52
2023-04-27T14:08:36.962Z,27.80
2023-04-27T14:11:05.937Z,27.55
2023-04-27T14:13:33.594Z,28.07
2023-04-27T14:16:02.610Z,28.57
2023-04-27T14:18:32.730Z,28.86
2023-04-27T14:21:08.716Z,29.01
2023-04-27T14:23:45.246Z,28.58
2023-04-27T14:26:13.432Z,28.71
2023-04-27T14:28:41.135Z,28.77
2023-04-27T14:31:11.330Z,28.52
2023-04-27T14:33:41.458Z,28.11
2023-04-27T14:36:18.170Z,27.53
2023-04-27T14:38:55.817Z,27.10
2023-04-27T14:41:26.419Z,26.49
2023-04-27T14:43:57.964Z,25.98
2023-04-27T14:46:31.173Z,26.13
2023-04-27T14:48:58.815Z,26.33
2023-04-27T14:51:32.585Z,26.36
2023-04-27T14:54:04.598Z,26.13
2023-04-27T14:56:37.658Z,25.78
2023-04-27T14:59:11.627Z,25.62
2023-04-27T15:01:44.673Z,25.72
2023-04-27T15:04:18.835Z,25.76
2023-04-27T15:06:49.076Z,25.42
2023-04-27T15:09:16.951Z,25.38
2023-04-27T15:11:47.481Z,25.68
2023-04-27T15:14:18.460Z,26.51
2023-04-27T15:16:46.208Z,26.19
2023-04-27T15:19:17.262Z,26.28
2023-04-27T15:21:55.262Z,26.14
2023-04-27T15:24:25.974Z,26.32
2023-04-27T15:26:59.744Z,26.37
2023-04-27T15:29:32.512Z,26.57
2023-04-27T15:32:04.108Z,26.39
2023-04-27T15:34:34.886Z,26.64
2023-04-27T15:37:07.810Z,26.63
2023-04-27T15:39:38.876Z,26.61
2023-04-27T15:42:12.673Z,26.59
2023-04-27T15:44:40.664Z,26.58
2023-04-27T15:47:16.570Z,26.67
2023-04-27T15:49:57.065Z,26.90
2023-04-27T15:52:27.253Z,26.89
2023-04-27T15:54:55.552Z,26.97
2023-04-27T15:57:25.871Z,26.96
2023-04-27T15:59:57.988Z,26.80
2023-04-27T16:02:28.781Z,26.68
2023-04-27T16:05:02.951Z,26.72
2023-04-27T16:07:32.142Z,26.52
2023-04-27T16:10:07.853Z,26.31
2023-04-27T16:12:41.382Z,26.26
2023-04-27T16:15:16.250Z,26.34
2023-04-27T16:17:50.211Z,26.32
2023-04-27T16:20:19.859Z,26.34
2023-04-27T16:22:50.256Z,26.35
2023-04-27T16:25:17.997Z,26.35
2023-04-27T16:27:49.185Z,26.25
2023-04-27T16:30:19.766Z,26.23
2023-04-27T16:32:51.028Z,26.21
2023-04-27T16:35:23.658Z,26.25
2023-04-27T16:37:54.570Z,26.25
2023-04-27T16:40:27.439Z,26.24
2023-04-27T16:42:58.457Z,26.21
2023-04-27T16:45:26.282Z,26.17
2023-04-27T16:47:59.783Z,26.22
2023-04-27T16:50:36.439Z,26.26
2023-04-27T16:53:19.638Z,26.19
2023-04-27T16:55:47.274Z,26.14
2023-04-27T16:58:20.098Z,26.15
2023-04-27T17:00:50.389Z,26.02
2023-04-27T17:03:17.849Z,26.11
2023-04-27T17:05:48.041Z,26.16
2023-04-27T17:08:23.397Z,26.19
2023-04-27T17:10:55.888Z,26.12
2023-04-27T17:13:31.857Z,26.04
2023-04-27T17:16:04.012Z,26.15
2023-04-27T17:18:34.182Z,26.18
2023-04-27T17:21:14.721Z,26.14
2023-04-27T17:23:42.708Z,26.02
2023-04-27T17:26:12.135Z,25.86
2023-04-27T17:28:49.478Z,25.79
2023-04-27T17:31:25.111Z,25.72
2023-04-27T17:33:58.847Z,25.71
2023-04-27T17:36:30.123Z,25.71
2023-04-27T17:39:01.500Z,25.72
2023-04-27T17:41:36.953Z,25.73
2023-04-27T17:44:09.119Z,25.70
2023-04-27T17:46:48.182Z,25.70
2023-04-27T17:49:18.785Z,25.69
2023-04-27T17:51:47.230Z,25.68
2023-04-27T17:54:17.562Z,25.70
2023-04-27T17:56:45.491Z,25.66
2023-04-27T17:59:16.172Z,25.66
2023-04-27T18:01:43.895Z,25.63
2023-04-27T18:04:12.391Z,25.65
2023-04-27T18:06:40.319Z,25.62
2023-04-27T18:09:13.841Z,25.62
2023-04-27T18:11:41.732Z,25.63
2023-04-27T18:14:13.578Z,25.62
2023-04-27T18:16:44.358Z,25.63
2023-04-27T18:19:17.129Z,25.64
2023-04-27T18:21:49.039Z,25.60
2023-04-27T18:24:20.110Z,25.59
2023-04-27T18:26:53.518Z,25.58
2023-04-27T18:29:27.220Z,25.59
2023-04-27T18:31:58.521Z,25.60
2023-04-27T18:34:26.974Z,25.58
2023-04-27T18:36:59.740Z,25.57
2023-04-27T18:39:30.398Z,25.56
2023-04-27T18:42:10.757Z,25.55
2023-04-27T18:44:43.954Z,25.54
2023-04-27T18:47:14.226Z,25.51
2023-04-27T18:49:44.637Z,25.50
2023-04-27T18:52:19.005Z,25.53
2023-04-27T18:54:55.066Z,25.47
2023-04-27T18:57:28.080Z,25.45
2023-04-27T19:00:01.499Z,25.48
2023-04-27T19:02:32.139Z,25.47
2023-04-27T19:07:46.764Z,25.49
2023-04-27T19:10:17.228Z,25.47
2023-04-27T19:12:47.783Z,25.49
2023-04-27T19:15:21.016Z,25.51
2023-04-27T19:17:58.579Z,25.51
2023-04-27T19:20:34.572Z,25.48
2023-04-27T19:23:02.442Z,25.45
2023-04-27T19:25:33.090Z,25.45
2023-04-27T19:28:00.971Z,25.42
2023-04-27T19:30:34.090Z,25.41
2023-04-27T19:33:02.207Z,25.42
2023-04-27T19:35:30.397Z,25.41
2023-04-27T19:38:04.115Z,25.47
2023-04-27T19:40:37.132Z,25.52
2023-04-27T19:43:13.036Z,25.58
2023-04-27T19:45:41.939Z,25.68
2023-04-27T19:48:15.164Z,25.73
2023-04-27T19:50:43.681Z,25.72
2023-04-27T19:53:13.938Z,25.68
2023-04-27T19:55:45.815Z,25.65
2023-04-27T19:58:16.480Z,25.59
2023-04-27T20:00:48.121Z,25.49
2023-04-27T20:03:22.506Z,25.48
2023-04-27T20:06:00.462Z,25.44
2023-04-27T20:08:29.044Z,25.40
2023-04-27T20:11:05.785Z,25.34
2023-04-27T20:13:39.307Z,25.34
2023-04-27T20:16:10.061Z,25.31
2023-04-27T20:18:40.595Z,25.31
2023-04-27T20:21:11.152Z,25.32
2023-04-27T20:23:45.122Z,25.33
2023-04-27T20:26:12.814Z,25.29
2023-04-27T20:28:43.469Z,25.27
2023-04-27T20:31:11.281Z,25.21
2023-04-27T20:33:39.016Z,25.23
2023-04-27T20:36:17.251Z,25.21
2023-04-27T20:38:52.047Z,25.24
2023-04-27T20:41:21.460Z,25.24
2023-04-27T20:43:54.282Z,25.20
2023-04-27T20:46:29.939Z,25.20
2023-04-27T20:49:00.512Z,25.19
2023-04-27T20:51:33.051Z,25.18
2023-04-27T20:54:03.384Z,25.15
2023-04-27T20:56:36.247Z,25.17
2023-04-27T20:59:09.182Z,25.16
2023-04-27T21:01:37.427Z,25.16
2023-04-27T21:04:11.472Z,25.17
2023-04-27T21:06:41.212Z,25.19
2023-04-27T21:09:10.075Z,25.18
2023-04-27T21:11:42.722Z,25.16
2023-04-27T21:14:15.947Z,25.15
2023-04-27T21:16:47.628Z,25.12
2023-04-27T21:19:18.178Z,25.12
2023-04-27T21:21:54.164Z,25.12
2023-04-27T21:24:22.164Z,25.11
2023-04-27T21:26:51.234Z,25.10
2023-04-27T21:29:21.897Z,25.11
2023-04-27T21:31:49.789Z,25.12
2023-04-27T21:34:17.770Z,25.09
2023-04-27T21:36:51.224Z,25.07
2023-04-27T21:39:18.910Z,25.05
2023-04-27T21:41:52.232Z,25.04
2023-04-27T21:44:25.967Z,25.05
2023-04-27T21:46:56.499Z,25.05
2023-04-27T21:49:24.197Z,25.05
2023-04-27T21:52:00.165Z,25.02
2023-04-27T21:54:34.140Z,25.04
2023-04-27T21:57:04.803Z,25.03
2023-04-27T21:59:36.583Z,25.01
2023-04-27T22:02:07.440Z,25.03
2023-04-27T22:04:41.117Z,25.02
2023-04-27T22:07:14.307Z,24.97
2023-04-27T22:09:48.239Z,25.00
2023-04-27T22:12:24.382Z,25.00
2023-04-27T22:14:58.008Z,24.96
2023-04-27T22:17:26.105Z,24.95
2023-04-27T22:19:56.161Z,24.97
2023-04-27T22:22:26.734Z,24.97
2023-04-27T22:24:55.481Z,24.97
2023-04-27T22:27:23.626Z,24.96
2023-04-27T22:29:56.795Z,24.96
2023-04-27T22:32:30.052Z,24.94
2023-04-27T22:35:00.147Z,24.95
2023-04-27T22:37:29.744Z,24.92
2023-04-27T22:40:01.424Z,24.90
2023-04-27T22:42:31.958Z,24.92
2023-04-27T22:45:05.634Z,24.90
2023-04-27T22:47:36.240Z,24.91
2023-04-27T22:50:04.948Z,24.88
2023-04-27T22:52:37.255Z,24.88
2023-04-27T22:55:05.266Z,24.88
2023-04-27T22:57:35.997Z,24.88
2023-04-27T23:00:11.944Z,24.88
2023-04-27T23:02:42.902Z,24.88
2023-04-27T23:05:16.735Z,24.89
2023-04-27T23:07:46.275Z,24.90
2023-04-27T23:10:18.878Z,24.92
2023-04-27T23:12:46.959Z,24.89
2023-04-27T23:15:23.934Z,24.86
2023-04-27T23:17:53.761Z,24.86
2023-04-27T23:20:28.616Z,24.83
2023-04-27T23:23:02.858Z,24.89
2023-04-27T23:25:36.376Z,24.86
2023-04-27T23:28:04.027Z,24.85
2023-04-27T23:30:40.211Z,24.84
2023-04-27T23:33:08.084Z,24.84
2023-04-27T23:35:35.763Z,24.83
2023-04-27T23:38:08.865Z,24.83
2023-04-27T23:40:40.058Z,24.84
2023-04-27T23:43:10.572Z,24.84
2023-04-27T23:45:43.861Z,24.81
2023-04-27T23:48:14.009Z,24.80
2023-04-27T23:50:41.769Z,24.83
2023-04-27T23:53:09.262Z,24.81
2023-04-27T23:55:37.289Z,24.84
2023-04-27T23:58:10.253Z,24.80
